createdAt,value
2019-06-10T06:00:33.494Z,58.54
2019-06-10T06:01:32.373Z,58.74
2019-06-10T06:02:33.690Z,58.74
2019-06-10T06:03:33.433Z,58.74
2019-06-10T06:04:33.020Z,58.14
2019-06-10T06:05:32.903Z,58.74
2019-06-10T06:06:33.513Z,58.23
2019-06-10T06:07:31.737Z,57.70
2019-06-10T06:08:33.339Z,57.20
2019-06-10T06:09:33.505Z,57.23
2019-06-10T06:10:33.892Z,56.70
2019-06-10T06:11:33.750Z,57.00
2019-06-10T06:12:33.895Z,57.70
2019-06-10T06:13:33.877Z,57.70
2019-06-10T06:14:31.630Z,58.11
2019-06-10T06:15:32.939Z,57.90
2019-06-10T06:16:32.649Z,57.90
2019-06-10T06:17:32.404Z,58.21
2019-06-10T06:18:30.335Z,57.40
2019-06-10T06:19:32.666Z,57.10
2019-06-10T06:20:31.963Z,57.40
2019-06-10T06:21:34.955Z,57.90
2019-06-10T06:22:33.729Z,58.61
2019-06-10T06:23:32.929Z,58.21
2019-06-10T06:24:32.748Z,58.01
2019-06-10T06:25:33.225Z,57.68
2019-06-10T06:26:37.418Z,58.18
2019-06-10T06:27:33.404Z,58.21
2019-06-10T06:28:32.912Z,58.21
2019-06-10T06:29:31.489Z,58.51
2019-06-10T06:30:30.251Z,58.71
2019-06-10T06:31:30.849Z,58.91
2019-06-10T06:32:31.080Z,59.22
2019-06-10T06:33:32.776Z,59.31
2019-06-10T06:34:35.098Z,59.22
2019-06-10T06:35:33.014Z,59.42
2019-06-10T06:36:31.231Z,59.31
2019-06-10T06:37:34.671Z,59.62
2019-06-10T06:38:33.496Z,60.32
2019-06-10T06:39:32.247Z,59.72
2019-06-10T06:40:32.749Z,59.28
2019-06-10T06:41:30.053Z,59.31
2019-06-10T06:42:32.370Z,59.48
2019-06-10T06:43:32.783Z,59.79
2019-06-10T06:44:33.030Z,60.42
2019-06-10T06:45:30.020Z,60.19
2019-06-10T06:46:32.520Z,59.62
2019-06-10T06:47:29.984Z,59.62
2019-06-10T06:48:30.030Z,60.39
2019-06-10T06:49:32.431Z,60.29
2019-06-10T06:50:30.839Z,60.29
2019-06-10T06:51:38.068Z,60.09
2019-06-10T06:52:55.532Z,59.92
2019-06-10T06:53:39.549Z,59.69
2019-06-10T06:54:33.005Z,60.19
2019-06-10T06:55:31.268Z,60.29
2019-06-10T06:56:32.619Z,60.39
2019-06-10T06:57:33.705Z,60.60
2019-06-10T06:58:32.297Z,60.60
2019-06-10T06:59:29.856Z,61.30
2019-06-10T07:00:43.133Z,61.20
2019-06-10T07:01:34.620Z,61.33
2019-06-10T07:02:32.177Z,61.93
2019-06-10T07:03:29.832Z,61.63
2019-06-10T07:04:29.795Z,61.63
2019-06-10T07:05:32.289Z,62.10
2019-06-10T07:06:32.192Z,62.13
2019-06-10T07:07:30.159Z,62.24
2019-06-10T07:08:30.850Z,62.51
2019-06-10T07:09:30.323Z,62.01
2019-06-10T07:10:30.910Z,61.70
2019-06-10T07:11:31.159Z,61.80
2019-06-10T07:12:31.356Z,62.01
2019-06-10T07:13:31.468Z,62.51
2019-06-10T07:14:31.965Z,62.58
2019-06-10T07:15:30.962Z,61.87
2019-06-10T07:16:29.663Z,61.87
2019-06-10T07:17:29.674Z,61.94
2019-06-10T07:18:29.715Z,61.54
2019-06-10T07:19:29.637Z,62.95
2019-06-10T07:20:29.679Z,61.24
2019-06-10T07:21:29.619Z,61.34
2019-06-10T07:22:29.597Z,61.04
2019-06-10T07:23:29.610Z,61.54
2019-06-10T07:24:29.610Z,61.85
2019-06-10T07:25:32.148Z,60.84
2019-06-10T07:26:29.557Z,61.14
2019-06-10T07:27:29.542Z,62.15
2019-06-10T07:28:29.625Z,61.21
2019-06-10T07:29:29.528Z,60.84
2019-06-10T07:30:29.512Z,61.21
2019-06-10T07:31:32.171Z,61.31
2019-06-10T07:32:29.505Z,61.51
2019-06-10T07:33:29.511Z,60.91
2019-06-10T07:34:29.532Z,60.51
2019-06-10T07:35:29.455Z,61.11
2019-06-10T07:36:29.443Z,60.71
2019-06-10T07:37:29.436Z,60.41
2019-06-10T07:38:29.447Z,60.51
2019-06-10T07:39:29.436Z,60.48
2019-06-10T07:40:29.408Z,61.51
2019-06-10T07:41:29.403Z,60.61
2019-06-10T07:42:29.376Z,60.71
2019-06-10T07:43:29.458Z,60.28
2019-06-10T07:44:29.389Z,60.08
2019-06-10T07:45:29.346Z,59.98
2019-06-10T07:46:29.338Z,59.95
2019-06-10T07:47:29.335Z,60.48
2019-06-10T07:48:29.355Z,60.15
2019-06-10T07:49:29.338Z,59.95
2019-06-10T07:50:29.297Z,59.45
2019-06-10T07:51:29.283Z,59.45
2019-06-10T07:52:29.271Z,59.45
2019-06-10T07:53:29.267Z,59.95
2019-06-10T07:54:29.273Z,60.22
2019-06-10T07:55:29.317Z,60.02
2019-06-10T07:56:33.221Z,59.92
2019-06-10T07:57:30.214Z,59.72
2019-06-10T07:58:29.207Z,58.99
2019-06-10T07:59:29.224Z,58.69
2019-06-10T08:00:29.223Z,58.79
2019-06-10T08:01:29.192Z,58.69
2019-06-10T08:02:29.188Z,58.72
2019-06-10T08:03:29.157Z,59.12
2019-06-10T08:04:29.198Z,59.19
2019-06-10T08:05:29.130Z,59.42
2019-06-10T08:06:29.122Z,59.09
2019-06-10T08:07:29.124Z,59.79
2019-06-10T08:08:29.137Z,58.69
2019-06-10T08:09:29.093Z,58.86
2019-06-10T08:10:29.106Z,58.26
2019-06-10T08:11:29.068Z,58.46
2019-06-10T08:12:29.066Z,58.46
2019-06-10T08:13:29.048Z,58.66
2019-06-10T08:14:29.036Z,58.96
2019-06-10T08:15:29.082Z,59.06
2019-06-10T08:16:29.014Z,59.26
2019-06-10T08:17:29.012Z,58.56
2019-06-10T08:18:29.046Z,58.36
2019-06-10T08:19:35.001Z,57.86
2019-06-10T08:20:30.713Z,58.86
2019-06-10T08:21:28.969Z,58.96
2019-06-10T08:22:33.289Z,58.86
2019-06-10T08:23:29.940Z,58.96
2019-06-10T08:24:28.926Z,58.46
2019-06-10T08:25:28.960Z,58.96
2019-06-10T08:26:28.903Z,60.06
2019-06-10T08:27:28.924Z,59.66
2019-06-10T08:28:28.886Z,60.10
2019-06-10T08:29:32.854Z,60.06
2019-06-10T08:30:28.897Z,60.16
2019-06-10T08:31:28.890Z,60.06
2019-06-10T08:32:28.855Z,60.36
2019-06-10T08:33:28.838Z,59.36
2019-06-10T08:34:28.820Z,59.36
2019-06-10T08:35:39.378Z,59.86
2019-06-10T08:36:29.830Z,59.94
2019-06-10T08:37:28.787Z,59.83
2019-06-10T08:38:28.812Z,59.74
2019-06-10T08:39:28.774Z,60.53
2019-06-10T08:40:28.762Z,60.03
2019-06-10T08:41:28.779Z,59.81
2019-06-10T08:42:28.736Z,60.21
2019-06-10T08:43:28.763Z,59.61
2019-06-10T08:44:28.713Z,59.11
2019-06-10T08:45:28.698Z,57.98
2019-06-10T08:46:28.727Z,58.78
2019-06-10T08:47:28.681Z,58.68
2019-06-10T08:48:28.728Z,58.35
2019-06-10T08:49:28.668Z,58.28
2019-06-10T08:50:28.667Z,57.55
2019-06-10T08:51:28.641Z,57.55
2019-06-10T08:52:28.634Z,57.15
2019-06-10T08:53:28.647Z,57.75
2019-06-10T08:54:28.638Z,57.35
2019-06-10T08:55:28.594Z,57.32
2019-06-10T08:56:28.584Z,57.42
2019-06-10T08:57:28.570Z,57.42
2019-06-10T08:58:28.598Z,55.52
2019-06-10T08:59:28.552Z,56.52
2019-06-10T09:00:28.543Z,57.59
2019-06-10T09:01:28.528Z,55.62
2019-06-10T09:02:28.549Z,56.39
2019-06-10T09:03:28.514Z,56.52
2019-06-10T09:04:29.555Z,57.09
2019-06-10T09:05:28.523Z,57.59
2019-06-10T09:06:28.536Z,56.49
2019-06-10T09:07:28.497Z,55.59
2019-06-10T09:08:28.463Z,56.62
2019-06-10T09:09:28.443Z,56.09
2019-06-10T09:10:28.434Z,56.59
2019-06-10T09:11:28.456Z,55.59
2019-06-10T09:12:33.186Z,55.19
2019-06-10T09:13:29.412Z,55.79
2019-06-10T09:14:28.408Z,56.70
2019-06-10T09:15:28.418Z,55.59
2019-06-10T09:16:28.368Z,56.27
2019-06-10T09:17:28.422Z,56.07
2019-06-10T09:18:28.347Z,55.47
2019-06-10T09:19:28.349Z,55.57
2019-06-10T09:20:28.366Z,55.57
2019-06-10T09:21:28.328Z,56.44
2019-06-10T09:22:28.308Z,55.77
2019-06-10T09:23:28.299Z,55.57
2019-06-10T09:24:28.290Z,55.36
2019-06-10T09:25:28.310Z,55.36
2019-06-10T09:26:28.291Z,55.14
2019-06-10T09:27:28.255Z,55.04
2019-06-10T09:28:28.250Z,54.74
2019-06-10T09:29:28.948Z,55.54
2019-06-10T09:30:28.232Z,56.34
2019-06-10T09:31:28.244Z,57.34
2019-06-10T09:32:28.200Z,55.44
2019-06-10T09:33:28.187Z,55.64
2019-06-10T09:34:28.177Z,55.44
2019-06-10T09:35:28.172Z,56.91
2019-06-10T09:36:28.216Z,56.81
2019-06-10T09:37:28.145Z,54.71
2019-06-10T09:38:28.134Z,54.22
2019-06-10T09:39:28.129Z,55.29
2019-06-10T09:40:28.114Z,55.58
2019-06-10T09:41:39.361Z,53.79
2019-06-10T09:42:29.102Z,54.09
2019-06-10T09:43:28.095Z,53.69
2019-06-10T09:44:28.069Z,53.79
2019-06-10T09:45:28.077Z,54.29
2019-06-10T09:46:28.081Z,54.09
2019-06-10T09:47:28.102Z,53.69
2019-06-10T09:48:28.025Z,54.39
2019-06-10T09:49:28.022Z,54.29
2019-06-10T09:50:28.010Z,53.99
2019-06-10T09:51:28.037Z,55.19
2019-06-10T09:52:28.003Z,53.79
2019-06-10T09:53:41.194Z,54.06
2019-06-10T09:54:28.961Z,53.96
2019-06-10T09:55:27.960Z,52.47
2019-06-10T09:56:27.966Z,53.77
2019-06-10T09:57:27.964Z,53.66
2019-06-10T09:58:27.927Z,53.86
2019-06-10T09:59:27.911Z,53.04
2019-06-10T10:00:29.229Z,54.36
2019-06-10T10:01:27.891Z,54.14
2019-06-10T10:02:27.914Z,53.77
2019-06-10T10:03:27.872Z,54.06
2019-06-10T10:04:27.853Z,53.54
2019-06-10T10:05:27.847Z,53.34
2019-06-10T10:06:27.843Z,53.64
2019-06-10T10:07:27.855Z,53.84
2019-06-10T10:08:27.841Z,53.94
2019-06-10T10:09:27.826Z,53.91
2019-06-10T10:10:27.804Z,53.61
2019-06-10T10:11:28.693Z,53.91
2019-06-10T10:12:27.799Z,53.61
2019-06-10T10:13:27.763Z,54.01
2019-06-10T10:14:27.789Z,54.21
2019-06-10T10:15:31.597Z,53.41
2019-06-10T10:16:28.726Z,54.21
2019-06-10T10:17:27.735Z,53.41
2019-06-10T10:18:27.709Z,53.22
2019-06-10T10:19:27.729Z,53.22
2019-06-10T10:20:27.688Z,53.64
2019-06-10T10:21:27.674Z,53.74
2019-06-10T10:22:27.661Z,53.91
2019-06-10T10:23:27.701Z,53.02
2019-06-10T10:24:27.641Z,53.31
2019-06-10T10:25:28.329Z,53.61
2019-06-10T10:26:27.627Z,54.01
2019-06-10T10:27:28.084Z,54.71
2019-06-10T10:28:27.628Z,53.61
2019-06-10T10:29:27.637Z,53.78
2019-06-10T10:30:27.586Z,53.81
2019-06-10T10:31:27.620Z,53.19
2019-06-10T10:32:27.561Z,53.02
2019-06-10T10:33:30.174Z,53.89
2019-06-10T10:34:28.533Z,53.71
2019-06-10T10:35:27.529Z,54.11
2019-06-10T10:36:27.571Z,52.92
2019-06-10T10:37:27.505Z,54.11
2019-06-10T10:38:27.502Z,52.12
2019-06-10T10:39:27.491Z,52.02
2019-06-10T10:40:27.512Z,52.19
2019-06-10T10:41:27.486Z,52.29
2019-06-10T10:42:41.706Z,52.99
2019-06-10T10:43:34.233Z,52.09
2019-06-10T10:44:28.438Z,53.96
2019-06-10T10:45:27.439Z,52.47
2019-06-10T10:46:27.434Z,51.67
2019-06-10T10:47:27.810Z,52.34
2019-06-10T10:48:27.386Z,51.75
2019-06-10T10:49:27.381Z,51.67
2019-06-10T10:50:27.377Z,53.76
2019-06-10T10:51:27.378Z,51.77
2019-06-10T10:52:27.345Z,51.97
2019-06-10T10:53:27.332Z,52.00
2019-06-10T10:54:34.009Z,52.00
2019-06-10T10:55:28.309Z,51.70
2019-06-10T10:56:27.328Z,51.59
2019-06-10T10:57:27.311Z,53.59
2019-06-10T10:58:27.276Z,52.99
2019-06-10T10:59:27.266Z,52.99
2019-06-10T11:00:27.279Z,51.67
2019-06-10T11:01:27.307Z,51.57
2019-06-10T11:02:27.236Z,52.27
2019-06-10T11:03:27.228Z,52.07
2019-06-10T11:04:27.224Z,51.87
2019-06-10T11:05:27.201Z,51.87
2019-06-10T11:06:27.218Z,51.97
2019-06-10T11:07:27.212Z,51.87
2019-06-10T11:08:27.248Z,51.84
2019-06-10T11:09:27.160Z,51.65
2019-06-10T11:10:27.161Z,50.65
2019-06-10T11:11:27.142Z,51.17
2019-06-10T11:12:27.190Z,50.85
2019-06-10T11:13:27.115Z,49.55
2019-06-10T11:14:27.112Z,50.25
2019-06-10T11:15:27.102Z,50.35
2019-06-10T11:16:27.116Z,50.85
2019-06-10T11:17:27.113Z,50.55
2019-06-10T11:18:27.061Z,50.85
2019-06-10T11:19:27.114Z,50.15
2019-06-10T11:20:27.074Z,49.93
2019-06-10T11:21:27.049Z,49.73
2019-06-10T11:22:27.079Z,49.93
2019-06-10T11:23:27.012Z,49.23
2019-06-10T11:24:36.320Z,49.93
2019-06-10T11:25:27.996Z,49.53
2019-06-10T11:26:27.093Z,50.63
2019-06-10T11:27:27.052Z,49.53
2019-06-10T11:28:26.959Z,48.94
2019-06-10T11:29:26.964Z,47.94
2019-06-10T11:30:26.944Z,47.72
2019-06-10T11:31:27.126Z,47.84
2019-06-10T11:32:26.967Z,48.54
2019-06-10T11:33:26.903Z,48.04
2019-06-10T11:34:26.895Z,47.64
2019-06-10T11:35:26.885Z,47.84
2019-06-10T11:36:26.914Z,48.44
2019-06-10T11:37:26.870Z,48.54
2019-06-10T11:38:26.895Z,49.23
2019-06-10T11:39:26.849Z,49.33
2019-06-10T11:40:26.831Z,48.54
2019-06-10T11:41:26.856Z,49.04
2019-06-10T11:42:26.823Z,48.34
2019-06-10T11:43:26.826Z,48.34
2019-06-10T11:44:26.790Z,48.74
2019-06-10T11:45:26.777Z,48.14
2019-06-10T11:46:26.795Z,48.34
2019-06-10T11:47:26.756Z,48.16
2019-06-10T11:48:26.802Z,49.36
2019-06-10T11:49:26.738Z,48.56
2019-06-10T11:50:26.809Z,49.16
2019-06-10T11:51:26.709Z,48.86
2019-06-10T11:52:26.748Z,49.36
2019-06-10T11:53:28.709Z,49.28
2019-06-10T11:54:26.725Z,49.18
2019-06-10T11:55:26.672Z,49.58
2019-06-10T11:56:26.708Z,49.68
2019-06-10T11:57:26.649Z,49.48
2019-06-10T11:58:26.645Z,49.98
2019-06-10T11:59:26.675Z,49.38
2019-06-10T12:00:26.619Z,49.58
2019-06-10T12:01:26.605Z,48.79
2019-06-10T12:02:27.428Z,49.70
2019-06-10T12:03:26.585Z,50.20
2019-06-10T12:04:26.626Z,49.80
2019-06-10T12:05:26.575Z,51.10
2019-06-10T12:06:26.553Z,49.60
2019-06-10T12:07:26.593Z,48.91
2019-06-10T12:08:34.205Z,49.21
2019-06-10T12:09:26.595Z,49.21
2019-06-10T12:10:26.552Z,49.80
2019-06-10T12:11:26.509Z,49.51
2019-06-10T12:12:26.504Z,49.58
2019-06-10T12:13:26.514Z,48.88
2019-06-10T12:14:27.314Z,49.88
2019-06-10T12:15:26.467Z,49.18
2019-06-10T12:17:15.665Z,49.58
2019-06-10T12:17:41.742Z,49.88
2019-06-10T12:18:27.434Z,49.28
2019-06-10T12:19:26.489Z,49.68
2019-06-10T12:20:28.537Z,50.27
2019-06-10T12:21:26.413Z,49.98
2019-06-10T12:22:26.410Z,50.78
2019-06-10T12:23:26.406Z,50.57
2019-06-10T12:24:26.433Z,50.98
2019-06-10T12:25:35.555Z,51.57
2019-06-10T12:26:27.344Z,51.87
2019-06-10T12:27:26.344Z,51.57
2019-06-10T12:28:26.321Z,50.87
2019-06-10T12:29:26.375Z,51.17
2019-06-10T12:30:26.337Z,50.85
2019-06-10T12:31:26.285Z,49.88
2019-06-10T12:32:26.306Z,50.18
2019-06-10T12:33:26.283Z,50.55
2019-06-10T12:34:26.298Z,51.75
2019-06-10T12:35:26.248Z,50.85
2019-06-10T12:36:26.232Z,50.95
2019-06-10T12:37:26.280Z,50.55
2019-06-10T12:38:26.226Z,50.03
2019-06-10T12:39:26.277Z,49.66
2019-06-10T12:40:26.252Z,49.53
2019-06-10T12:41:26.187Z,49.33
2019-06-10T12:42:26.168Z,49.36
2019-06-10T12:43:26.173Z,49.76
2019-06-10T12:44:26.192Z,49.13
2019-06-10T12:45:26.142Z,49.26
2019-06-10T12:46:26.209Z,48.83
2019-06-10T12:47:26.116Z,48.24
2019-06-10T12:48:26.147Z,48.36
2019-06-10T12:49:26.095Z,48.36
2019-06-10T12:50:26.086Z,48.26
2019-06-10T12:51:26.597Z,48.36
2019-06-10T12:52:26.077Z,49.26
2019-06-10T12:53:26.088Z,48.56
2019-06-10T12:54:26.229Z,48.26
2019-06-10T12:55:37.798Z,48.26
2019-06-10T12:56:27.052Z,47.77
2019-06-10T12:57:26.020Z,47.47
2019-06-10T12:58:26.014Z,48.26
2019-06-10T12:59:25.990Z,48.26
2019-06-10T13:00:26.648Z,48.26
2019-06-10T13:01:26.007Z,48.36
2019-06-10T13:02:31.220Z,48.26
2019-06-10T13:03:26.942Z,48.46
2019-06-10T13:04:25.974Z,48.38
2019-06-10T13:05:25.968Z,48.36
2019-06-10T13:06:25.911Z,48.66
2019-06-10T13:07:25.916Z,48.16
2019-06-10T13:08:25.901Z,48.07
2019-06-10T13:09:25.908Z,48.36
2019-06-10T13:10:25.911Z,48.68
2019-06-10T13:11:25.884Z,47.86
2019-06-10T13:12:25.847Z,46.79
2019-06-10T13:13:25.862Z,46.57
2019-06-10T13:14:25.845Z,47.39
2019-06-10T13:15:25.820Z,47.96
2019-06-10T13:16:25.866Z,47.89
2019-06-10T13:17:25.793Z,48.46
2019-06-10T13:18:25.786Z,48.66
2019-06-10T13:19:25.783Z,49.26
2019-06-10T13:20:25.776Z,47.86
2019-06-10T13:21:25.803Z,46.89
2019-06-10T13:22:25.748Z,46.00
2019-06-10T13:23:31.745Z,46.79
2019-06-10T13:24:26.723Z,47.09
2019-06-10T13:25:25.740Z,47.09
2019-06-10T13:26:25.782Z,47.59
2019-06-10T13:27:25.700Z,48.58
2019-06-10T13:28:25.678Z,47.69
2019-06-10T13:29:25.665Z,46.59
2019-06-10T13:30:25.674Z,47.59
2019-06-10T13:31:25.681Z,47.49
2019-06-10T13:32:25.662Z,46.59
2019-06-10T13:33:25.622Z,47.59
2019-06-10T13:34:25.649Z,47.69
2019-06-10T13:35:25.604Z,46.59
2019-06-10T13:36:26.253Z,46.69
2019-06-10T13:37:25.581Z,48.19
2019-06-10T13:38:25.932Z,47.49
2019-06-10T13:39:27.708Z,48.79
2019-06-10T13:40:25.682Z,48.36
2019-06-10T13:41:25.599Z,48.46
2019-06-10T13:42:25.526Z,49.16
2019-06-10T13:43:25.524Z,48.46
2019-06-10T13:44:25.540Z,48.16
2019-06-10T13:45:25.742Z,46.08
2019-06-10T13:46:25.525Z,45.85
2019-06-10T13:47:26.176Z,45.67
2019-06-10T13:48:26.221Z,46.17
2019-06-10T13:49:26.519Z,46.37
2019-06-10T13:50:25.856Z,46.17
2019-06-10T13:51:25.432Z,46.17
2019-06-10T13:52:25.468Z,46.27
2019-06-10T13:53:25.411Z,46.17
2019-06-10T13:54:25.408Z,45.18
2019-06-10T13:55:26.015Z,45.78
2019-06-10T13:56:43.011Z,46.27
2019-06-10T13:57:26.971Z,46.27
2019-06-10T13:58:25.396Z,46.87
2019-06-10T13:59:25.379Z,46.97
2019-06-10T14:00:40.522Z,46.55
2019-06-10T14:01:26.353Z,46.55
2019-06-10T14:02:25.644Z,45.95
2019-06-10T14:03:25.303Z,46.15
2019-06-10T14:04:25.899Z,46.25
2019-06-10T14:05:25.341Z,45.15
2019-06-10T14:06:39.673Z,44.85
2019-06-10T14:07:26.265Z,46.37
2019-06-10T14:08:25.250Z,46.45
2019-06-10T14:09:25.252Z,45.75
2019-06-10T14:10:25.274Z,46.97
2019-06-10T14:11:28.483Z,46.27
2019-06-10T14:12:25.223Z,45.78
2019-06-10T14:13:25.215Z,46.77
2019-06-10T14:14:25.188Z,46.25
2019-06-10T14:15:25.217Z,46.17
2019-06-10T14:16:25.200Z,46.08
2019-06-10T14:17:25.154Z,45.97
2019-06-10T14:18:25.155Z,46.27
2019-06-10T14:19:25.140Z,46.17
2019-06-10T14:20:25.150Z,46.17
2019-06-10T14:21:25.117Z,45.90
2019-06-10T14:22:25.115Z,46.67
2019-06-10T14:23:25.128Z,46.37
2019-06-10T14:24:25.077Z,47.07
2019-06-10T14:25:25.101Z,46.87
2019-06-10T14:26:36.857Z,47.07
2019-06-10T14:27:26.085Z,46.17
2019-06-10T14:28:39.728Z,46.57
2019-06-10T14:29:26.034Z,47.07
2019-06-10T14:30:25.047Z,46.67
2019-06-10T14:31:39.167Z,46.37
2019-06-10T14:32:26.014Z,47.66
2019-06-10T14:33:25.024Z,47.96
2019-06-10T14:34:24.980Z,48.56
2019-06-10T14:35:26.867Z,47.56
2019-06-10T14:36:24.973Z,48.46
2019-06-10T14:37:38.519Z,46.87
2019-06-10T14:38:25.943Z,47.96
2019-06-10T14:39:24.924Z,48.46
2019-06-10T14:40:25.458Z,48.16
2019-06-10T14:41:25.966Z,47.99
2019-06-10T14:42:24.909Z,46.69
2019-06-10T14:43:24.889Z,46.99
2019-06-10T14:44:24.921Z,47.99
2019-06-10T14:45:24.856Z,47.89
2019-06-10T14:46:24.850Z,47.89
2019-06-10T14:47:24.982Z,47.89
2019-06-10T14:48:24.858Z,47.19
2019-06-10T14:49:24.860Z,46.69
2019-06-10T14:50:24.812Z,46.69
2019-06-10T14:51:24.853Z,46.99
2019-06-10T14:52:24.792Z,46.99
2019-06-10T14:53:24.784Z,46.99
2019-06-10T14:54:24.793Z,46.59
2019-06-10T14:55:24.752Z,47.59
2019-06-10T14:56:24.775Z,47.29
2019-06-10T14:57:24.738Z,46.79
2019-06-10T14:58:24.740Z,46.99
2019-06-10T14:59:24.716Z,46.99
2019-06-10T15:00:24.697Z,47.99
2019-06-10T15:01:25.966Z,48.08
2019-06-10T15:02:24.672Z,47.99
2019-06-10T15:03:24.724Z,48.08
2019-06-10T15:04:24.685Z,48.28
2019-06-10T15:05:24.685Z,48.38
2019-06-10T15:06:24.635Z,48.38
2019-06-10T15:07:24.626Z,47.79
2019-06-10T15:08:24.610Z,47.89
2019-06-10T15:09:24.639Z,46.59
2019-06-10T15:10:24.593Z,47.59
2019-06-10T15:11:27.663Z,48.08
2019-06-10T15:12:24.577Z,48.28
2019-06-10T15:13:24.557Z,48.38
2019-06-10T15:14:24.605Z,48.58
2019-06-10T15:15:24.534Z,48.28
2019-06-10T15:16:24.536Z,47.79
2019-06-10T15:17:24.558Z,48.49
2019-06-10T15:18:24.551Z,48.19
2019-06-10T15:19:28.850Z,49.08
2019-06-10T15:20:24.584Z,48.28
2019-06-10T15:21:24.512Z,48.49
2019-06-10T15:22:24.471Z,48.38
2019-06-10T15:23:24.487Z,48.19
2019-06-10T15:24:24.442Z,47.99
2019-06-10T15:25:27.905Z,48.19
2019-06-10T15:26:24.453Z,48.98
2019-06-10T15:27:30.448Z,48.28
2019-06-10T15:28:25.401Z,48.38
2019-06-10T15:29:24.459Z,48.28
2019-06-10T15:30:28.135Z,48.28
2019-06-10T15:31:25.380Z,49.08
2019-06-10T15:32:33.745Z,49.26
2019-06-10T15:33:25.348Z,48.36
2019-06-10T15:34:24.354Z,47.56
2019-06-10T15:35:24.625Z,47.96
2019-06-10T15:36:24.342Z,48.16
2019-06-10T15:37:24.383Z,46.77
2019-06-10T15:38:24.334Z,47.66
2019-06-10T15:39:24.413Z,47.47
2019-06-10T15:40:24.283Z,47.86
2019-06-10T15:41:24.822Z,48.96
2019-06-10T15:42:24.322Z,48.26
2019-06-10T15:43:24.238Z,46.67
2019-06-10T15:44:47.644Z,48.16
2019-06-10T15:45:25.230Z,47.96
2019-06-10T15:46:24.300Z,48.26
2019-06-10T15:47:26.272Z,47.77
2019-06-10T15:48:25.504Z,48.36
2019-06-10T15:49:26.198Z,48.36
2019-06-10T15:50:27.413Z,47.07
2019-06-10T15:51:26.188Z,46.97
2019-06-10T15:52:25.114Z,46.77
2019-06-10T15:53:25.857Z,46.08
2019-06-10T15:54:25.416Z,46.17
2019-06-10T15:55:48.663Z,46.37
2019-06-10T15:56:38.751Z,46.08
2019-06-10T15:57:38.639Z,46.87
2019-06-10T15:58:26.090Z,47.07
2019-06-10T15:59:24.095Z,46.67
2019-06-10T16:00:28.848Z,46.77
2019-06-10T16:01:27.167Z,46.67
2019-06-10T16:02:25.544Z,46.17
2019-06-10T16:03:25.612Z,46.17
2019-06-10T16:04:25.714Z,47.07
2019-06-10T16:05:25.385Z,47.07
2019-06-10T16:06:24.348Z,46.27
2019-06-10T16:07:25.618Z,46.17
2019-06-10T16:08:23.996Z,46.47
2019-06-10T16:09:23.956Z,46.97
2019-06-10T16:10:27.754Z,48.16
2019-06-10T16:11:26.453Z,47.27
2019-06-10T16:12:26.504Z,46.95
2019-06-10T16:13:25.825Z,46.47
2019-06-10T16:14:25.464Z,46.65
2019-06-10T16:15:26.359Z,46.27
2019-06-10T16:16:23.968Z,46.37
2019-06-10T16:17:23.874Z,47.07
2019-06-10T16:18:25.975Z,46.77
2019-06-10T16:19:23.895Z,46.17
2019-06-10T16:20:23.864Z,46.47
2019-06-10T16:21:23.866Z,47.09
2019-06-10T16:22:24.916Z,46.39
2019-06-10T16:23:26.485Z,46.69
2019-06-10T16:24:27.044Z,46.89
2019-06-10T16:25:26.473Z,46.89
2019-06-10T16:26:26.772Z,46.79
2019-06-10T16:27:40.528Z,46.42
2019-06-10T16:28:26.364Z,46.72
2019-06-10T16:29:25.445Z,46.61
2019-06-10T16:30:25.912Z,47.11
2019-06-10T16:31:27.193Z,47.11
2019-06-10T16:32:26.413Z,46.51
2019-06-10T16:33:27.390Z,47.31
2019-06-10T16:34:27.301Z,46.61
2019-06-10T16:35:26.816Z,47.61
2019-06-10T16:36:25.864Z,47.81
2019-06-10T16:37:25.357Z,48.50
2019-06-10T16:38:25.799Z,47.81
2019-06-10T16:39:24.248Z,48.23
2019-06-10T16:40:25.263Z,48.13
2019-06-10T16:41:26.054Z,48.13
2019-06-10T16:42:26.355Z,48.83
2019-06-10T16:43:25.801Z,48.33
2019-06-10T16:44:26.292Z,48.33
2019-06-10T16:45:29.078Z,48.41
2019-06-10T16:46:24.794Z,49.01
2019-06-10T16:47:25.829Z,49.03
2019-06-10T16:48:23.642Z,48.71
2019-06-10T16:49:23.600Z,49.03
2019-06-10T16:50:25.658Z,49.01
2019-06-10T16:51:23.762Z,48.91
2019-06-10T16:52:34.084Z,49.40
2019-06-10T16:53:28.493Z,48.41
2019-06-10T16:54:25.882Z,48.93
2019-06-10T16:55:25.316Z,49.01
2019-06-10T16:56:24.820Z,48.50
2019-06-10T16:57:25.382Z,49.01
2019-06-10T16:58:26.499Z,48.63
2019-06-10T16:59:25.609Z,49.03
2019-06-10T17:00:25.977Z,48.50
2019-06-10T17:01:26.458Z,48.91
2019-06-10T17:02:25.173Z,49.40
2019-06-10T17:03:26.342Z,48.71
2019-06-10T17:04:24.591Z,49.10
2019-06-10T17:05:26.668Z,49.01
2019-06-10T17:06:24.961Z,48.61
2019-06-10T17:07:23.336Z,49.51
2019-06-10T17:08:26.444Z,49.60
2019-06-10T17:09:26.159Z,49.90
2019-06-10T17:10:24.020Z,48.91
2019-06-10T17:11:25.610Z,48.91
2019-06-10T17:12:25.993Z,48.43
2019-06-10T17:13:24.865Z,48.83
2019-06-10T17:14:25.976Z,48.80
2019-06-10T17:15:23.293Z,48.33
2019-06-10T17:16:24.810Z,48.33
2019-06-10T17:17:25.188Z,47.93
2019-06-10T17:18:25.295Z,48.13
2019-06-10T17:19:26.309Z,48.03
2019-06-10T17:20:24.915Z,47.96
2019-06-10T17:21:26.765Z,48.55
2019-06-10T17:22:27.351Z,48.46
2019-06-10T17:23:26.653Z,48.55
2019-06-10T17:24:27.113Z,48.55
2019-06-10T17:25:23.906Z,48.55
2019-06-10T17:26:29.663Z,48.35
2019-06-10T17:27:25.293Z,48.75
2019-06-10T17:28:27.174Z,48.85
2019-06-10T17:29:25.969Z,48.75
2019-06-10T17:30:25.165Z,48.95
2019-06-10T17:31:27.287Z,48.85
2019-06-10T17:32:25.293Z,48.95
2019-06-10T17:33:25.813Z,49.85
2019-06-10T17:34:25.968Z,49.65
2019-06-10T17:35:24.113Z,49.05
2019-06-10T17:36:26.416Z,48.65
2019-06-10T17:37:24.452Z,49.25
2019-06-10T17:38:23.004Z,49.27
2019-06-10T17:39:24.676Z,49.25
2019-06-10T17:40:23.478Z,49.65
2019-06-10T17:41:25.783Z,49.87
2019-06-10T17:42:28.866Z,49.87
2019-06-10T17:43:25.063Z,49.05
2019-06-10T17:44:24.370Z,49.15
2019-06-10T17:45:26.202Z,49.55
2019-06-10T17:46:25.149Z,49.55
2019-06-10T17:47:24.532Z,49.55
2019-06-10T17:48:25.566Z,49.15
2019-06-10T17:49:25.456Z,49.55
2019-06-10T17:50:24.733Z,49.45
2019-06-10T17:51:25.947Z,49.85
2019-06-10T17:52:24.115Z,49.15
2019-06-10T17:53:24.181Z,49.95
2019-06-10T17:54:24.943Z,50.05
2019-06-10T17:55:25.966Z,50.05
2019-06-10T17:56:24.993Z,50.27
2019-06-10T17:57:25.030Z,49.68
2019-06-10T17:58:34.487Z,49.08
2019-06-10T17:59:25.230Z,50.07
2019-06-10T18:00:24.508Z,50.27
2019-06-10T18:01:24.191Z,49.98
2019-06-10T18:02:24.289Z,50.40
2019-06-10T18:03:24.521Z,50.27
2019-06-10T18:04:24.022Z,50.00
2019-06-10T18:05:23.859Z,50.70
2019-06-10T18:06:25.409Z,51.40
2019-06-10T18:07:24.038Z,51.20
2019-06-10T18:08:24.314Z,50.70
2019-06-10T18:09:32.799Z,50.72
2019-06-10T18:10:24.018Z,50.82
2019-06-10T18:11:24.663Z,51.32
2019-06-10T18:12:23.817Z,51.20
2019-06-10T18:13:24.550Z,51.02
2019-06-10T18:14:23.299Z,51.22
2019-06-10T18:15:23.975Z,51.72
2019-06-10T18:16:23.203Z,52.22
2019-06-10T18:17:23.857Z,52.12
2019-06-10T18:18:22.624Z,52.02
2019-06-10T18:19:22.607Z,51.92
2019-06-10T18:20:22.770Z,52.02
2019-06-10T18:21:22.543Z,51.84
2019-06-10T18:22:22.922Z,52.02
2019-06-10T18:23:23.381Z,51.94
2019-06-10T18:24:24.383Z,52.12
2019-06-10T18:25:23.035Z,52.04
2019-06-10T18:26:23.159Z,52.62
2019-06-10T18:27:22.526Z,52.44
2019-06-10T18:28:22.832Z,52.42
2019-06-10T18:29:23.125Z,52.32
2019-06-10T18:30:22.469Z,52.32
2019-06-10T18:31:23.370Z,53.24
2019-06-10T18:32:22.902Z,52.44
2019-06-10T18:33:23.120Z,53.12
2019-06-10T18:34:22.741Z,53.14
2019-06-10T18:35:22.511Z,53.64
2019-06-10T18:36:24.425Z,53.74
2019-06-10T18:37:22.838Z,53.44
2019-06-10T18:38:22.371Z,53.74
2019-06-10T18:39:22.881Z,54.24
2019-06-10T18:40:22.362Z,53.84
2019-06-10T18:41:22.524Z,53.94
2019-06-10T18:42:23.581Z,54.04
2019-06-10T18:43:23.006Z,54.24
2019-06-10T18:44:25.989Z,53.94
2019-06-10T18:45:22.511Z,54.04
2019-06-10T18:46:23.162Z,54.27
2019-06-10T18:47:22.484Z,53.77
2019-06-10T18:48:23.126Z,54.29
2019-06-10T18:49:22.803Z,53.87
2019-06-10T18:50:25.321Z,54.39
2019-06-10T18:51:22.965Z,54.60
2019-06-10T18:52:23.357Z,55.40